createdAt,value
2023-11-28T00:01:53.093Z,1.50
2023-11-28T00:04:20.173Z,1.50
2023-11-28T00:06:47.210Z,1.50
2023-11-28T00:09:14.202Z,1.50
2023-11-28T00:11:41.143Z,1.50
2023-11-28T00:14:08.485Z,1.50
2023-11-28T00:16:35.609Z,1.50
2023-11-28T00:19:02.633Z,1.50
2023-11-28T00:21:29.649Z,1.50
2023-11-28T00:23:56.915Z,1.50
2023-11-28T00:26:23.842Z,1.50
2023-11-28T00:28:50.704Z,1.50
2023-11-28T00:31:17.790Z,1.50
2023-11-28T00:33:44.781Z,1.50
2023-11-28T00:36:11.963Z,1.50
2023-11-28T00:38:39.465Z,1.50
2023-11-28T00:41:06.940Z,1.50
2023-11-28T00:43:34.099Z,1.50
2023-11-28T00:46:01.161Z,1.50
2023-11-28T00:48:28.204Z,1.50
2023-11-28T00:50:55.268Z,1.50
2023-11-28T00:53:22.160Z,1.50
2023-11-28T00:55:49.275Z,1.40
2023-11-28T00:58:16.256Z,1.40
2023-11-28T01:00:43.258Z,1.40
2023-11-28T01:03:10.318Z,1.40
2023-11-28T01:05:37.344Z,1.30
2023-11-28T01:08:04.414Z,1.30
2023-11-28T01:10:31.490Z,1.30
2023-11-28T01:12:58.421Z,1.30
2023-11-28T01:15:25.390Z,1.20
2023-11-28T01:17:52.355Z,1.20
2023-11-28T01:20:19.329Z,1.20
2023-11-28T01:22:46.297Z,1.20
2023-11-28T01:25:13.274Z,1.20
2023-11-28T01:27:40.171Z,1.20
2023-11-28T01:30:07.752Z,1.20
2023-11-28T01:32:34.944Z,1.30
2023-11-28T01:35:01.998Z,1.30
2023-11-28T01:37:28.956Z,1.30
2023-11-28T01:39:55.991Z,1.30
2023-11-28T01:42:22.914Z,1.20
2023-11-28T01:44:49.908Z,1.20
2023-11-28T01:47:16.844Z,1.20
2023-11-28T01:49:44.693Z,1.20
2023-11-28T01:52:11.779Z,1.10
2023-11-28T01:54:39.969Z,1.10
2023-11-28T01:57:06.928Z,1.10
2023-11-28T01:59:34.610Z,1.10
2023-11-28T02:02:01.745Z,1.10
2023-11-28T02:04:28.835Z,1.00
2023-11-28T02:06:56.978Z,1.00
2023-11-28T02:09:24.066Z,1.00
2023-11-28T02:11:51.113Z,1.00
2023-11-28T02:14:18.501Z,0.90
2023-11-28T02:16:46.390Z,0.90
2023-11-28T02:19:13.342Z,0.80
2023-11-28T02:21:40.402Z,0.80
2023-11-28T02:24:12.109Z,0.80
2023-11-28T02:26:39.046Z,0.80
2023-11-28T02:29:06.026Z,0.70
2023-11-28T02:31:33.006Z,0.70
2023-11-28T02:33:59.955Z,0.70
2023-11-28T02:36:27.674Z,0.60
2023-11-28T02:38:55.293Z,0.60
2023-11-28T02:41:22.221Z,0.50
2023-11-28T02:43:50.062Z,0.50
2023-11-28T02:46:17.133Z,0.50
2023-11-28T02:48:44.395Z,0.50
2023-11-28T02:51:17.499Z,0.50
2023-11-28T02:53:44.457Z,0.50
2023-11-28T02:56:12.883Z,0.50
2023-11-28T02:58:40.597Z,0.50
2023-11-28T03:01:07.822Z,0.50
2023-11-28T03:03:34.798Z,0.50
2023-11-28T03:06:01.768Z,0.50
2023-11-28T03:08:28.716Z,0.50
2023-11-28T03:10:55.652Z,0.50
2023-11-28T03:13:22.711Z,0.50
2023-11-28T03:15:49.691Z,0.40
2023-11-28T03:18:16.656Z,0.40
2023-11-28T03:20:43.740Z,0.40
2023-11-28T03:23:10.707Z,0.30
2023-11-28T03:25:37.664Z,0.30
2023-11-28T03:28:04.829Z,0.30
2023-11-28T03:30:31.834Z,0.20
2023-11-28T03:32:58.799Z,0.20
2023-11-28T03:35:26.025Z,0.20
2023-11-28T03:37:53.114Z,0.20
2023-11-28T03:40:19.989Z,0.20
2023-11-28T03:42:46.976Z,0.10
2023-11-28T03:45:16.772Z,0.10
2023-11-28T03:47:43.785Z,0.10
2023-11-28T03:50:11.019Z,0.10
2023-11-28T03:52:38.056Z,0.10
2023-11-28T03:55:05.323Z,0.00
2023-11-28T03:57:32.302Z,0.00
2023-11-28T03:59:59.226Z,0.00
2023-11-28T04:02:26.223Z,0.00
2023-11-28T04:04:53.444Z,-0.10
2023-11-28T04:07:20.353Z,-0.10
2023-11-28T04:09:47.227Z,-0.10
2023-11-28T04:12:14.160Z,-0.10
2023-11-28T04:14:42.183Z,-0.10
2023-11-28T04:17:09.178Z,-0.10
2023-11-28T04:19:36.225Z,-0.20
2023-11-28T04:22:03.151Z,-0.20
2023-11-28T04:24:30.122Z,-0.20
2023-11-28T04:26:57.042Z,-0.30
2023-11-28T04:29:24.006Z,-0.20
2023-11-28T04:31:50.981Z,-0.30
2023-11-28T04:34:21.214Z,-0.30
2023-11-28T04:36:48.164Z,-0.30
2023-11-28T04:39:16.039Z,-0.30
2023-11-28T04:41:43.116Z,-0.30
2023-11-28T04:44:10.159Z,-0.40
2023-11-28T04:46:37.263Z,-0.40
2023-11-28T04:49:04.174Z,-0.40
2023-11-28T04:51:31.152Z,-0.40
2023-11-28T04:53:58.064Z,-0.40
2023-11-28T04:56:24.992Z,-0.40
2023-11-28T04:58:51.981Z,-0.40
2023-11-28T05:01:19.354Z,-0.40
2023-11-28T05:03:46.566Z,-0.50
2023-11-28T05:06:13.648Z,-0.50
2023-11-28T05:08:40.582Z,-0.40
2023-11-28T05:11:07.799Z,-0.50
2023-11-28T05:13:36.267Z,-0.50
2023-11-28T05:16:04.431Z,-0.50
2023-11-28T05:18:31.578Z,-0.50
2023-11-28T05:20:58.655Z,-0.50
2023-11-28T05:23:26.456Z,-0.50
2023-11-28T05:25:53.385Z,-0.50
2023-11-28T05:28:20.380Z,-0.50
2023-11-28T05:30:47.339Z,-0.50
2023-11-28T05:33:14.298Z,-0.50
2023-11-28T05:35:41.301Z,-0.50
2023-11-28T05:38:08.859Z,-0.50
2023-11-28T05:40:36.238Z,-0.50
2023-11-28T05:43:03.350Z,-0.50
2023-11-28T05:45:33.086Z,-0.50
2023-11-28T05:48:00.452Z,-0.60
2023-11-28T05:50:27.836Z,-0.60
2023-11-28T05:52:55.324Z,-0.60
2023-11-28T05:55:23.489Z,-0.60
2023-11-28T05:57:50.528Z,-0.60
2023-11-28T06:00:19.367Z,-0.60
2023-11-28T06:02:46.839Z,-0.60
2023-11-28T06:05:14.104Z,-0.60
2023-11-28T06:07:41.384Z,-0.60
2023-11-28T06:10:12.177Z,-0.60
2023-11-28T06:12:39.601Z,-0.60
2023-11-28T06:15:08.519Z,-0.60
2023-11-28T06:17:36.110Z,-0.60
2023-11-28T06:20:05.653Z,-0.60
2023-11-28T06:22:33.292Z,-0.60
2023-11-28T06:25:00.530Z,-0.60
2023-11-28T06:27:27.550Z,-0.60
2023-11-28T06:29:54.491Z,-0.60
2023-11-28T06:32:21.565Z,-0.60
2023-11-28T06:34:48.792Z,-0.60
2023-11-28T06:37:15.814Z,-0.60
2023-11-28T06:39:42.919Z,-0.60
2023-11-28T06:42:09.892Z,-0.60
2023-11-28T06:44:36.827Z,-0.60
2023-11-28T06:47:04.213Z,-0.60
2023-11-28T06:49:33.212Z,-0.60
2023-11-28T06:52:03.061Z,-0.60
2023-11-28T06:54:30.615Z,-0.60
2023-11-28T06:56:57.546Z,-0.60
2023-11-28T06:59:24.489Z,-0.60
2023-11-28T07:01:51.720Z,-0.60
2023-11-28T07:04:23.315Z,-0.60
2023-11-28T07:06:50.372Z,-0.60
2023-11-28T07:09:17.837Z,-0.60
2023-11-28T07:11:45.473Z,-0.60
2023-11-28T07:14:12.543Z,-0.60
2023-11-28T07:35:37.033Z,-0.80
2023-11-28T07:38:04.500Z,-0.80
2023-11-28T07:40:31.943Z,-0.80
2023-11-28T07:42:58.955Z,-0.80
2023-11-28T07:45:25.965Z,-0.80
2023-11-28T07:47:53.864Z,-0.90
2023-11-28T07:50:20.927Z,-0.80
2023-11-28T07:52:48.467Z,-0.90
2023-11-28T07:55:15.494Z,-0.90
2023-11-28T07:57:42.465Z,-0.90
2023-11-28T08:00:10.343Z,-0.90
2023-11-28T08:02:37.792Z,-0.90
2023-11-28T08:05:05.384Z,-0.90
2023-11-28T08:07:36.647Z,-0.90
2023-11-28T08:10:06.694Z,-0.90
2023-11-28T08:12:34.035Z,-0.90
2023-11-28T08:15:00.943Z,-0.90
2023-11-28T08:17:27.972Z,-0.90
2023-11-28T08:19:55.065Z,-0.90
2023-11-28T08:22:22.009Z,-0.90
2023-11-28T08:24:49.894Z,-0.90
2023-11-28T08:27:18.520Z,-0.90
2023-11-28T08:29:46.507Z,-0.90
2023-11-28T08:32:15.845Z,-0.90
2023-11-28T08:34:43.522Z,-0.90
2023-11-28T08:37:10.580Z,-0.90
2023-11-28T08:39:37.493Z,-0.80
2023-11-28T08:42:04.905Z,-0.90
2023-11-28T08:44:33.510Z,-0.90
2023-11-28T08:47:00.630Z,-0.80
2023-11-28T08:49:28.253Z,-0.80
2023-11-28T08:51:55.177Z,-0.80
2023-11-28T08:54:23.084Z,-0.70
2023-11-28T08:56:49.995Z,-0.70
2023-11-28T08:59:17.045Z,-0.60
2023-11-28T09:01:44.831Z,-0.60
2023-11-28T09:04:12.086Z,-0.60
2023-11-28T09:06:41.339Z,-0.50
2023-11-28T09:09:10.655Z,-0.40
2023-11-28T09:11:37.636Z,-0.40
2023-11-28T09:14:04.577Z,-0.40
2023-11-28T09:16:32.228Z,-0.40
2023-11-28T09:18:59.225Z,-0.40
2023-11-28T09:21:26.206Z,-0.40
2023-11-28T09:23:53.155Z,-0.40
2023-11-28T09:26:20.185Z,-0.40
2023-11-28T09:28:47.210Z,-0.40
2023-11-28T09:31:14.741Z,-0.40
2023-11-28T09:33:42.226Z,-0.40
2023-11-28T09:36:10.309Z,-0.40
2023-11-28T09:38:37.961Z,-0.40
2023-11-28T09:41:05.254Z,-0.50
2023-11-28T09:43:33.916Z,-0.60
2023-11-28T09:46:03.302Z,-0.50
2023-11-28T09:48:31.371Z,-0.50
2023-11-28T09:51:01.209Z,-0.60
2023-11-28T09:53:30.137Z,-0.60
2023-11-28T09:55:59.596Z,-0.60
2023-11-28T09:58:27.978Z,-0.60
2023-11-28T10:00:56.549Z,-0.70
2023-11-28T10:03:23.591Z,-0.70
2023-11-28T10:05:52.488Z,-0.80
2023-11-28T10:08:22.596Z,-0.80
2023-11-28T10:10:50.541Z,-0.80
2023-11-28T10:13:17.569Z,-0.90
2023-11-28T10:15:44.564Z,-0.90
2023-11-28T10:18:11.764Z,-1.00
2023-11-28T10:20:39.676Z,-1.00
2023-11-28T10:23:08.241Z,-1.00
2023-11-28T10:25:35.170Z,-1.00
2023-11-28T10:28:03.636Z,-1.00
2023-11-28T10:30:30.963Z,-1.00
2023-11-28T10:33:00.464Z,-1.10
2023-11-28T10:35:41.656Z,-1.10
2023-11-28T10:38:18.575Z,-1.10
2023-11-28T10:40:52.078Z,-1.10
2023-11-28T10:43:19.156Z,-1.10
2023-11-28T10:45:47.352Z,-1.10
2023-11-28T10:48:15.334Z,-1.10
2023-11-28T10:50:45.780Z,-1.10
2023-11-28T10:53:17.198Z,-1.10
2023-11-28T10:55:49.770Z,-1.10
2023-11-28T10:58:17.865Z,-1.00
2023-11-28T11:00:46.826Z,-0.90
2023-11-28T11:03:17.757Z,-0.70
2023-11-28T11:05:45.166Z,-0.70
2023-11-28T11:08:15.998Z,-0.70
2023-11-28T11:10:43.836Z,-0.70
2023-11-28T11:13:52.956Z,-0.70
2023-11-28T11:16:22.844Z,-0.70
2023-11-28T11:18:53.385Z,-0.70
2023-11-28T11:21:44.334Z,-0.70
2023-11-28T11:24:19.966Z,-0.60
2023-11-28T11:26:50.339Z,-0.60
2023-11-28T11:29:39.054Z,-0.60
2023-11-28T11:32:10.347Z,-0.60
2023-11-28T11:34:45.456Z,-0.70
2023-11-28T11:37:23.090Z,-0.70
2023-11-28T11:39:52.146Z,-0.80
2023-11-28T11:42:25.094Z,-0.80
2023-11-28T11:44:54.485Z,-0.80
2023-11-28T11:47:26.168Z,-0.80
2023-11-28T11:49:54.447Z,-0.80
2023-11-28T11:52:25.826Z,-0.80
2023-11-28T11:54:53.960Z,-0.80
2023-11-28T11:57:22.104Z,-0.90
2023-11-28T11:59:50.285Z,-0.90
2023-11-28T12:02:18.457Z,-1.00
2023-11-28T12:04:46.053Z,-0.90
2023-11-28T12:07:14.989Z,-0.90
2023-11-28T12:09:43.362Z,-0.80
2023-11-28T12:12:14.141Z,-0.70
2023-11-28T12:14:41.964Z,-0.60
2023-11-28T12:17:09.249Z,-0.60
2023-11-28T12:19:36.891Z,-0.60
2023-11-28T12:22:09.382Z,-0.60
2023-11-28T12:24:36.412Z,-0.70
2023-11-28T12:27:04.521Z,-0.70
2023-11-28T12:29:36.006Z,-0.80
2023-11-28T12:32:03.204Z,-0.80
2023-11-28T12:34:31.280Z,-0.80
2023-11-28T12:36:59.254Z,-0.90
2023-11-28T12:39:29.007Z,-1.00
2023-11-28T12:41:57.209Z,-1.10
2023-11-28T12:44:34.285Z,-1.10
2023-11-28T12:47:01.567Z,-1.20
2023-11-28T12:49:29.705Z,-1.20
2023-11-28T12:51:59.794Z,-1.20
2023-11-28T12:54:29.555Z,-1.20
2023-11-28T12:56:58.779Z,-1.20
2023-11-28T12:59:29.166Z,-1.10
2023-11-28T13:01:57.414Z,-1.10
2023-11-28T13:04:25.563Z,-1.00
2023-11-28T13:07:05.536Z,-1.00
2023-11-28T13:09:41.513Z,-0.90
2023-11-28T13:12:08.705Z,-0.80
2023-11-28T13:14:36.388Z,-0.80
2023-11-28T13:17:07.884Z,-0.70
2023-11-28T13:19:36.007Z,-0.60
2023-11-28T13:22:04.716Z,-0.60
2023-11-28T13:24:31.755Z,-0.50
2023-11-28T13:26:58.757Z,-0.50
2023-11-28T13:29:26.080Z,-0.60
2023-11-28T13:31:54.547Z,-0.70
2023-11-28T13:34:21.659Z,-0.70
2023-11-28T13:36:49.770Z,-0.90
2023-11-28T13:39:17.675Z,-1.00
2023-11-28T13:41:45.191Z,-1.00
2023-11-28T13:44:12.453Z,-1.10
2023-11-28T13:46:39.755Z,-1.20
2023-11-28T13:49:07.033Z,-1.30
2023-11-28T13:51:34.085Z,-1.30
2023-11-28T13:54:01.077Z,-1.40
2023-11-28T13:56:28.184Z,-1.40
2023-11-28T13:58:55.277Z,-1.40
2023-11-28T14:01:24.946Z,-1.40
2023-11-28T14:03:52.078Z,-1.50
2023-11-28T14:06:19.210Z,-1.50
2023-11-28T14:08:46.195Z,-1.50
2023-11-28T14:11:13.457Z,-1.60
2023-11-28T14:13:40.578Z,-1.60
2023-11-28T14:16:08.792Z,-1.70
2023-11-28T14:18:36.071Z,-1.70
2023-11-28T14:21:05.500Z,-1.70
2023-11-28T14:23:34.486Z,-1.70
2023-11-28T14:26:01.516Z,-1.70
2023-11-28T14:28:28.478Z,-1.70
2023-11-28T14:30:55.494Z,-1.80
2023-11-28T14:33:22.518Z,-1.80
2023-11-28T14:35:49.646Z,-1.80
2023-11-28T14:38:16.953Z,-1.90
2023-11-28T14:40:43.985Z,-1.90
2023-11-28T14:43:10.954Z,-1.90
2023-11-28T14:45:37.898Z,-1.90
2023-11-28T14:48:05.209Z,-1.90
2023-11-28T14:50:32.410Z,-1.80
2023-11-28T14:52:59.857Z,-1.80
2023-11-28T14:55:26.866Z,-1.70
2023-11-28T14:57:55.211Z,-1.70
2023-11-28T15:00:22.645Z,-1.70
2023-11-28T15:02:50.254Z,-1.60
2023-11-28T15:05:17.657Z,-1.60
2023-11-28T15:07:44.849Z,-1.60
2023-11-28T15:10:12.617Z,-1.60
2023-11-28T15:12:39.570Z,-1.60
2023-11-28T15:15:07.073Z,-1.70
2023-11-28T15:17:34.374Z,-1.70
2023-11-28T15:20:05.007Z,-1.70
2023-11-28T15:22:32.074Z,-1.70
2023-11-28T15:24:59.203Z,-1.70
2023-11-28T15:27:26.549Z,-1.70
2023-11-28T15:29:54.109Z,-1.70
2023-11-28T15:32:21.362Z,-1.70
2023-11-28T15:34:49.564Z,-1.70
2023-11-28T15:37:16.648Z,-1.80
2023-11-28T15:43:28.229Z,-1.90
2023-11-28T15:45:56.133Z,-1.90
2023-11-28T15:48:23.199Z,-1.90
2023-11-28T15:50:50.317Z,-1.90
2023-11-28T15:53:17.370Z,-1.90
2023-11-28T15:55:44.333Z,-2.00
2023-11-28T15:58:14.234Z,-2.00
2023-11-28T16:00:41.213Z,-2.00
2023-11-28T16:03:11.006Z,-2.00
2023-11-28T16:05:38.197Z,-1.90
2023-11-28T16:08:06.444Z,-2.00
2023-11-28T16:10:33.838Z,-1.90
2023-11-28T16:13:00.764Z,-1.90
2023-11-28T16:15:27.863Z,-1.90
2023-11-28T16:17:54.885Z,-1.90
2023-11-28T16:20:24.058Z,-1.90
2023-11-28T16:22:51.154Z,-1.90
2023-11-28T16:25:18.130Z,-1.80
2023-11-28T16:27:45.261Z,-1.80
2023-11-28T16:30:13.455Z,-1.80
2023-11-28T16:32:41.221Z,-1.80
2023-11-28T16:35:08.954Z,-1.80
2023-11-28T16:37:40.479Z,-1.70
2023-11-28T16:40:14.384Z,-1.70
2023-11-28T16:42:41.375Z,-1.70
2023-11-28T16:45:08.907Z,-1.70
2023-11-28T16:47:35.847Z,-1.70
2023-11-28T16:50:03.551Z,-1.70
2023-11-28T16:52:30.819Z,-1.70
2023-11-28T16:54:57.845Z,-1.70
2023-11-28T16:57:26.527Z,-1.70
2023-11-28T16:59:54.449Z,-1.70
2023-11-28T17:02:21.665Z,-1.70
2023-11-28T17:04:48.679Z,-1.70
2023-11-28T17:07:18.065Z,-1.70
2023-11-28T17:09:44.966Z,-1.70
2023-11-28T17:12:11.986Z,-1.70
2023-11-28T17:14:40.679Z,-1.60
2023-11-28T17:17:07.736Z,-1.70
2023-11-28T17:19:34.712Z,-1.60
2023-11-28T17:22:02.114Z,-1.60
2023-11-28T17:24:30.015Z,-1.70
2023-11-28T17:26:57.002Z,-1.70
2023-11-28T17:29:23.984Z,-1.70
2023-11-28T17:31:55.040Z,-1.60
2023-11-28T17:34:22.379Z,-1.70
2023-11-28T17:36:49.352Z,-1.60
2023-11-28T17:39:16.514Z,-1.60
2023-11-28T17:41:43.497Z,-1.60
2023-11-28T17:44:10.614Z,-1.70
2023-11-28T17:46:37.592Z,-1.70
2023-11-28T17:49:04.784Z,-1.70
2023-11-28T17:51:31.941Z,-1.70
2023-11-28T17:53:58.846Z,-1.70
2023-11-28T17:56:25.894Z,-1.70
2023-11-28T17:58:52.895Z,-1.70
2023-11-28T18:01:19.971Z,-1.70
2023-11-28T18:03:47.025Z,-1.70
2023-11-28T18:06:14.097Z,-1.60
2023-11-28T18:08:41.134Z,-1.70
2023-11-28T18:11:11.028Z,-1.60
2023-11-28T18:13:39.699Z,-1.60
2023-11-28T18:16:06.719Z,-1.60
2023-11-28T18:18:34.395Z,-1.60
2023-11-28T18:21:11.402Z,-1.60
2023-11-28T18:23:45.537Z,-1.60
2023-11-28T18:26:13.742Z,-1.60
2023-11-28T18:28:41.554Z,-1.60
2023-11-28T18:31:08.865Z,-1.60
2023-11-28T18:33:36.941Z,-1.60
2023-11-28T18:36:09.137Z,-1.60
2023-11-28T18:38:47.956Z,-1.60
2023-11-28T18:41:18.380Z,-1.60
2023-11-28T18:43:45.379Z,-1.60
2023-11-28T18:46:14.166Z,-1.60
2023-11-28T18:48:41.557Z,-1.60
2023-11-28T18:51:18.623Z,-1.70
2023-11-28T18:53:45.996Z,-1.60
2023-11-28T18:56:20.795Z,-1.60
2023-11-28T18:58:49.023Z,-1.60
2023-11-28T19:01:16.608Z,-1.60
2023-11-28T19:03:46.531Z,-1.60
2023-11-28T19:06:13.789Z,-1.60
2023-11-28T19:08:42.458Z,-1.60
2023-11-28T19:11:12.755Z,-1.60
2023-11-28T19:13:39.990Z,-1.60
2023-11-28T19:16:08.056Z,-1.60
2023-11-28T19:18:35.141Z,-1.60
2023-11-28T19:21:03.409Z,-1.60
2023-11-28T19:23:30.383Z,-1.70
2023-11-28T19:25:57.377Z,-1.60
2023-11-28T19:28:24.450Z,-1.70
2023-11-28T19:30:51.398Z,-1.70
2023-11-28T19:33:18.379Z,-1.70
2023-11-28T19:35:45.592Z,-1.70
2023-11-28T19:38:13.134Z,-1.80
2023-11-28T19:40:40.113Z,-1.80
2023-11-28T19:43:07.174Z,-1.80
2023-11-28T19:45:34.312Z,-1.80
2023-11-28T19:48:02.283Z,-1.80
2023-11-28T19:50:29.869Z,-1.80
2023-11-28T19:52:57.044Z,-1.90
2023-11-28T19:55:24.336Z,-1.90
2023-11-28T19:57:53.597Z,-1.80
2023-11-28T20:00:20.729Z,-1.90
2023-11-28T20:02:48.307Z,-1.90
2023-11-28T20:05:19.159Z,-1.90
2023-11-28T20:07:47.235Z,-1.90
2023-11-28T20:10:14.520Z,-1.90
2023-11-28T20:12:44.362Z,-1.90
2023-11-28T20:15:11.381Z,-2.00
2023-11-28T20:17:38.631Z,-2.00
2023-11-28T20:20:06.714Z,-2.00
2023-11-28T20:22:36.662Z,-2.00
2023-11-28T20:25:05.318Z,-2.00
2023-11-28T20:27:32.835Z,-2.00
2023-11-28T20:30:00.259Z,-2.00
2023-11-28T20:32:27.370Z,-2.00
2023-11-28T20:34:54.590Z,-2.10
2023-11-28T20:37:24.130Z,-2.10
2023-11-28T20:39:51.881Z,-2.10
2023-11-28T20:42:20.925Z,-2.10
2023-11-28T20:44:48.008Z,-2.10
2023-11-28T20:47:15.128Z,-2.10
2023-11-28T20:49:42.865Z,-2.10
2023-11-28T20:52:09.920Z,-2.10
2023-11-28T20:54:37.094Z,-2.10
2023-11-28T20:57:06.417Z,-2.10
2023-11-28T20:59:33.474Z,-2.10
2023-11-28T21:02:06.275Z,-2.10
2023-11-28T21:04:34.400Z,-2.10
2023-11-28T21:07:16.539Z,-2.20
2023-11-28T21:09:43.687Z,-2.20
2023-11-28T21:12:10.719Z,-2.20
2023-11-28T21:14:37.708Z,-2.20
2023-11-28T21:17:04.984Z,-2.20
2023-11-28T21:19:32.139Z,-2.20
2023-11-28T21:21:59.214Z,-2.20
2023-11-28T21:24:26.340Z,-2.20
2023-11-28T21:26:53.443Z,-2.30
2023-11-28T21:29:27.018Z,-2.30
2023-11-28T21:31:54.035Z,-2.30
2023-11-28T21:34:20.987Z,-2.30
2023-11-28T21:36:48.126Z,-2.30
2023-11-28T21:39:15.971Z,-2.30
2023-11-28T21:41:43.094Z,-2.30
2023-11-28T21:44:10.250Z,-2.30
2023-11-28T21:46:41.086Z,-2.30
2023-11-28T21:49:08.164Z,-2.30
2023-11-28T21:51:35.143Z,-2.30
2023-11-28T21:54:02.154Z,-2.30
2023-11-28T21:56:29.245Z,-2.30
2023-11-28T21:58:57.595Z,-2.30
2023-11-28T22:01:24.753Z,-2.30
2023-11-28T22:03:51.878Z,-2.30
2023-11-28T22:06:18.839Z,-2.30
2023-11-28T22:08:54.000Z,-2.30
2023-11-28T22:11:26.846Z,-2.40
2023-11-28T22:13:54.083Z,-2.40
2023-11-28T22:16:21.230Z,-2.40
2023-11-28T22:18:48.373Z,-2.40
2023-11-28T22:21:22.809Z,-2.40
2023-11-28T22:23:51.376Z,-2.40
2023-11-28T22:26:18.403Z,-2.40
2023-11-28T22:28:45.355Z,-2.40
2023-11-28T22:31:12.389Z,-2.40
2023-11-28T22:33:39.502Z,-2.30
2023-11-28T22:36:06.665Z,-2.30
2023-11-28T22:38:33.751Z,-2.30
2023-11-28T22:41:00.894Z,-2.30
2023-11-28T22:43:27.864Z,-2.30
2023-11-28T22:45:54.788Z,-2.30
2023-11-28T22:48:22.204Z,-2.30
2023-11-28T22:50:49.282Z,-2.30
2023-11-28T22:53:16.293Z,-2.30
2023-11-28T22:55:43.273Z,-2.30
2023-11-28T22:58:10.345Z,-2.30
2023-11-28T23:00:37.913Z,-2.30
2023-11-28T23:03:05.417Z,-2.40
2023-11-28T23:05:32.585Z,-2.40
2023-11-28T23:07:59.992Z,-2.40
2023-11-28T23:10:27.801Z,-2.40
2023-11-28T23:12:54.810Z,-2.40
2023-11-28T23:15:21.870Z,-2.40
2023-11-28T23:17:48.987Z,-2.40
2023-11-28T23:20:16.330Z,-2.40
2023-11-28T23:22:51.949Z,-2.40
2023-11-28T23:25:24.874Z,-2.40
2023-11-28T23:27:53.998Z,-2.40
2023-11-28T23:30:22.925Z,-2.40
2023-11-28T23:32:50.905Z,-2.40
2023-11-28T23:35:18.461Z,-2.40
2023-11-28T23:37:45.734Z,-2.40
2023-11-28T23:40:13.028Z,-2.40
2023-11-28T23:42:46.768Z,-2.50
2023-11-28T23:45:17.906Z,-2.50
2023-11-28T23:47:48.164Z,-2.50
2023-11-28T23:50:15.478Z,-2.50
2023-11-28T23:52:43.090Z,-2.60
2023-11-28T23:55:10.541Z,-2.60
2023-11-28T23:57:37.525Z,-2.50
